sensor_id;sensor_type;location;lat;lon;timestamp;P1;durP1;ratioP1;P2;durP2;ratioP2
23716;SDS011;22094;52.130;5.598;2023-05-02T00:02:02;33.90;;;19.33;;
23716;SDS011;22094;52.130;5.598;2023-05-02T00:04:28;29.27;;;17.95;;
23716;SDS011;22094;52.130;5.598;2023-05-02T00:06:53;30.58;;;19.08;;
23716;SDS011;22094;52.130;5.598;2023-05-02T00:09:19;30.50;;;17.90;;
23716;SDS011;22094;52.130;5.598;2023-05-02T00:11:45;34.78;;;20.13;;
23716;SDS011;22094;52.130;5.598;2023-05-02T00:14:11;36.40;;;21.40;;
23716;SDS011;22094;52.130;5.598;2023-05-02T00:16:36;33.35;;;19.88;;
23716;SDS011;22094;52.130;5.598;2023-05-02T00:19:02;36.05;;;20.30;;
23716;SDS011;22094;52.130;5.598;2023-05-02T00:21:27;32.05;;;20.02;;
23716;SDS011;22094;52.130;5.598;2023-05-02T00:23:53;32.67;;;20.13;;
23716;SDS011;22094;52.130;5.598;2023-05-02T00:26:21;36.55;;;18.63;;
23716;SDS011;22094;52.130;5.598;2023-05-02T00:28:47;35.35;;;19.90;;
23716;SDS011;22094;52.130;5.598;2023-05-02T00:31:12;33.35;;;18.88;;
23716;SDS011;22094;52.130;5.598;2023-05-02T00:33:38;29.40;;;18.17;;
23716;SDS011;22094;52.130;5.598;2023-05-02T00:36:04;32.58;;;18.08;;
23716;SDS011;22094;52.130;5.598;2023-05-02T00:38:30;31.13;;;17.40;;
23716;SDS011;22094;52.130;5.598;2023-05-02T00:40:55;31.50;;;17.70;;
23716;SDS011;22094;52.130;5.598;2023-05-02T00:43:21;32.67;;;17.83;;
23716;SDS011;22094;52.130;5.598;2023-05-02T00:45:47;28.98;;;16.80;;
23716;SDS011;22094;52.130;5.598;2023-05-02T00:48:12;25.50;;;16.67;;
23716;SDS011;22094;52.130;5.598;2023-05-02T00:50:41;25.10;;;15.20;;
23716;SDS011;22094;52.130;5.598;2023-05-02T00:53:10;26.50;;;15.55;;
23716;SDS011;22094;52.130;5.598;2023-05-02T00:55:36;27.90;;;16.63;;
23716;SDS011;22094;52.130;5.598;2023-05-02T00:58:02;25.55;;;14.90;;
23716;SDS011;22094;52.130;5.598;2023-05-02T01:03:16;29.58;;;14.63;;
23716;SDS011;22094;52.130;5.598;2023-05-02T01:05:58;22.58;;;13.55;;
23716;SDS011;22094;52.130;5.598;2023-05-02T01:08:46;21.67;;;13.18;;
23716;SDS011;22094;52.130;5.598;2023-05-02T01:11:38;26.38;;;13.65;;
23716;SDS011;22094;52.130;5.598;2023-05-02T01:14:15;19.05;;;11.30;;
23716;SDS011;22094;52.130;5.598;2023-05-02T01:16:44;20.38;;;11.07;;
23716;SDS011;22094;52.130;5.598;2023-05-02T01:19:51;17.02;;;10.35;;
23716;SDS011;22094;52.130;5.598;2023-05-02T01:22:14;22.15;;;9.68;;
23716;SDS011;22094;52.130;5.598;2023-05-02T01:24:56;18.33;;;8.63;;
23716;SDS011;22094;52.130;5.598;2023-05-02T01:30:04;15.57;;;8.38;;
23716;SDS011;22094;52.130;5.598;2023-05-02T01:32:32;13.75;;;8.25;;
23716;SDS011;22094;52.130;5.598;2023-05-02T01:35:01;16.52;;;8.55;;
23716;SDS011;22094;52.130;5.598;2023-05-02T01:37:28;14.77;;;7.55;;
23716;SDS011;22094;52.130;5.598;2023-05-02T01:39:54;18.52;;;7.90;;
23716;SDS011;22094;52.130;5.598;2023-05-02T01:42:22;13.85;;;7.20;;
23716;SDS011;22094;52.130;5.598;2023-05-02T01:44:50;16.58;;;6.72;;
23716;SDS011;22094;52.130;5.598;2023-05-02T01:47:20;16.10;;;6.20;;
23716;SDS011;22094;52.130;5.598;2023-05-02T01:49:47;11.77;;;5.57;;
23716;SDS011;22094;52.130;5.598;2023-05-02T01:52:12;11.27;;;5.40;;
23716;SDS011;22094;52.130;5.598;2023-05-02T01:54:39;11.82;;;5.65;;
23716;SDS011;22094;52.130;5.598;2023-05-02T01:57:06;8.98;;;5.13;;
23716;SDS011;22094;52.130;5.598;2023-05-02T01:59:33;12.68;;;4.50;;
23716;SDS011;22094;52.130;5.598;2023-05-02T02:02:01;16.80;;;4.72;;
23716;SDS011;22094;52.130;5.598;2023-05-02T02:04:28;12.48;;;4.47;;
23716;SDS011;22094;52.130;5.598;2023-05-02T02:07:00;13.02;;;3.72;;
23716;SDS011;22094;52.130;5.598;2023-05-02T02:09:30;10.63;;;3.53;;
23716;SDS011;22094;52.130;5.598;2023-05-02T02:12:01;9.55;;;3.40;;
23716;SDS011;22094;52.130;5.598;2023-05-02T02:14:45;10.25;;;3.42;;
23716;SDS011;22094;52.130;5.598;2023-05-02T02:17:15;9.02;;;3.30;;
23716;SDS011;22094;52.130;5.598;2023-05-02T02:19:48;9.27;;;3.13;;
23716;SDS011;22094;52.130;5.598;2023-05-02T02:22:20;9.02;;;3.03;;
23716;SDS011;22094;52.130;5.598;2023-05-02T02:24:47;8.05;;;3.17;;
23716;SDS011;22094;52.130;5.598;2023-05-02T02:27:13;11.23;;;3.03;;
23716;SDS011;22094;52.130;5.598;2023-05-02T02:29:39;9.65;;;3.00;;
23716;SDS011;22094;52.130;5.598;2023-05-02T02:32:05;7.07;;;2.63;;
23716;SDS011;22094;52.130;5.598;2023-05-02T02:34:31;11.27;;;3.40;;
23716;SDS011;22094;52.130;5.598;2023-05-02T02:37:00;8.85;;;2.60;;
23716;SDS011;22094;52.130;5.598;2023-05-02T02:39:54;8.77;;;2.97;;
23716;SDS011;22094;52.130;5.598;2023-05-02T02:42:36;11.75;;;2.80;;
23716;SDS011;22094;52.130;5.598;2023-05-02T02:50:22;10.32;;;3.00;;
23716;SDS011;22094;52.130;5.598;2023-05-02T03:00:51;7.57;;;2.72;;
23716;SDS011;22094;52.130;5.598;2023-05-02T03:03:17;12.10;;;3.22;;
23716;SDS011;22094;52.130;5.598;2023-05-02T03:05:44;13.55;;;2.63;;
23716;SDS011;22094;52.130;5.598;2023-05-02T03:08:10;7.90;;;2.55;;
23716;SDS011;22094;52.130;5.598;2023-05-02T03:10:36;7.70;;;2.40;;
23716;SDS011;22094;52.130;5.598;2023-05-02T03:13:01;9.90;;;2.63;;
23716;SDS011;22094;52.130;5.598;2023-05-02T03:18:17;6.65;;;2.10;;
23716;SDS011;22094;52.130;5.598;2023-05-02T03:20:43;5.15;;;2.22;;
23716;SDS011;22094;52.130;5.598;2023-05-02T03:23:09;10.43;;;2.53;;
23716;SDS011;22094;52.130;5.598;2023-05-02T03:25:35;7.18;;;2.42;;
23716;SDS011;22094;52.130;5.598;2023-05-02T03:28:00;8.68;;;2.42;;
23716;SDS011;22094;52.130;5.598;2023-05-02T03:30:26;6.82;;;2.08;;
23716;SDS011;22094;52.130;5.598;2023-05-02T03:32:52;6.60;;;2.33;;
23716;SDS011;22094;52.130;5.598;2023-05-02T03:35:17;8.93;;;2.58;;
23716;SDS011;22094;52.130;5.598;2023-05-02T03:37:43;9.88;;;2.63;;
23716;SDS011;22094;52.130;5.598;2023-05-02T03:40:09;6.18;;;2.20;;
23716;SDS011;22094;52.130;5.598;2023-05-02T03:42:35;6.30;;;2.17;;
23716;SDS011;22094;52.130;5.598;2023-05-02T03:45:05;7.53;;;2.63;;
23716;SDS011;22094;52.130;5.598;2023-05-02T03:47:32;4.75;;;2.10;;
23716;SDS011;22094;52.130;5.598;2023-05-02T03:49:58;7.30;;;2.58;;
23716;SDS011;22094;52.130;5.598;2023-05-02T03:52:24;11.48;;;3.08;;
23716;SDS011;22094;52.130;5.598;2023-05-02T03:54:50;8.73;;;2.55;;
23716;SDS011;22094;52.130;5.598;2023-05-02T03:57:16;5.95;;;2.28;;
23716;SDS011;22094;52.130;5.598;2023-05-02T03:59:42;6.70;;;2.40;;
23716;SDS011;22094;52.130;5.598;2023-05-02T04:02:09;10.50;;;2.78;;
23716;SDS011;22094;52.130;5.598;2023-05-02T04:04:36;7.88;;;2.40;;
23716;SDS011;22094;52.130;5.598;2023-05-02T04:07:02;5.32;;;2.28;;
23716;SDS011;22094;52.130;5.598;2023-05-02T04:09:28;10.05;;;2.22;;
23716;SDS011;22094;52.130;5.598;2023-05-02T04:11:54;7.65;;;2.33;;
23716;SDS011;22094;52.130;5.598;2023-05-02T04:14:19;6.22;;;2.47;;
23716;SDS011;22094;52.130;5.598;2023-05-02T04:16:49;6.90;;;2.38;;
23716;SDS011;22094;52.130;5.598;2023-05-02T04:19:15;9.27;;;2.58;;
23716;SDS011;22094;52.130;5.598;2023-05-02T04:21:42;4.47;;;2.10;;
23716;SDS011;22094;52.130;5.598;2023-05-02T04:24:08;11.48;;;2.42;;
23716;SDS011;22094;52.130;5.598;2023-05-02T04:26:34;9.30;;;2.60;;
23716;SDS011;22094;52.130;5.598;2023-05-02T04:28:59;8.80;;;2.10;;
23716;SDS011;22094;52.130;5.598;2023-05-02T04:31:25;11.55;;;2.83;;
23716;SDS011;22094;52.130;5.598;2023-05-02T04:33:51;13.18;;;2.33;;
23716;SDS011;22094;52.130;5.598;2023-05-02T04:36:17;10.35;;;2.60;;
23716;SDS011;22094;52.130;5.598;2023-05-02T04:38:43;12.23;;;2.60;;
23716;SDS011;22094;52.130;5.598;2023-05-02T04:41:09;14.48;;;2.80;;
23716;SDS011;22094;52.130;5.598;2023-05-02T04:43:35;8.25;;;2.50;;
23716;SDS011;22094;52.130;5.598;2023-05-02T04:46:00;14.43;;;3.42;;
23716;SDS011;22094;52.130;5.598;2023-05-02T04:48:26;11.77;;;2.83;;
23716;SDS011;22094;52.130;5.598;2023-05-02T04:50:51;11.50;;;2.72;;
23716;SDS011;22094;52.130;5.598;2023-05-02T04:53:20;13.50;;;2.55;;
23716;SDS011;22094;52.130;5.598;2023-05-02T04:55:46;16.80;;;3.28;;
23716;SDS011;22094;52.130;5.598;2023-05-02T04:58:12;14.52;;;2.63;;
23716;SDS011;22094;52.130;5.598;2023-05-02T05:00:37;12.55;;;2.97;;
23716;SDS011;22094;52.130;5.598;2023-05-02T05:03:03;11.98;;;3.15;;
23716;SDS011;22094;52.130;5.598;2023-05-02T05:05:30;13.68;;;3.10;;
23716;SDS011;22094;52.130;5.598;2023-05-02T05:07:56;13.05;;;3.38;;
23716;SDS011;22094;52.130;5.598;2023-05-02T05:10:21;12.55;;;3.22;;
23716;SDS011;22094;52.130;5.598;2023-05-02T05:12:47;11.05;;;3.38;;
23716;SDS011;22094;52.130;5.598;2023-05-02T05:15:13;11.50;;;3.15;;
23716;SDS011;22094;52.130;5.598;2023-05-02T05:17:39;13.48;;;3.25;;
23716;SDS011;22094;52.130;5.598;2023-05-02T05:20:06;10.00;;;3.47;;
23716;SDS011;22094;52.130;5.598;2023-05-02T05:22:37;18.33;;;5.05;;
23716;SDS011;22094;52.130;5.598;2023-05-02T05:25:03;9.07;;;3.58;;
23716;SDS011;22094;52.130;5.598;2023-05-02T05:27:29;16.25;;;3.75;;
23716;SDS011;22094;52.130;5.598;2023-05-02T05:29:55;12.50;;;3.00;;
23716;SDS011;22094;52.130;5.598;2023-05-02T05:32:20;14.48;;;4.07;;
23716;SDS011;22094;52.130;5.598;2023-05-02T05:34:50;14.40;;;3.85;;
23716;SDS011;22094;52.130;5.598;2023-05-02T05:37:16;9.13;;;3.08;;
23716;SDS011;22094;52.130;5.598;2023-05-02T05:39:42;20.83;;;4.13;;
23716;SDS011;22094;52.130;5.598;2023-05-02T05:42:08;15.93;;;4.07;;
23716;SDS011;22094;52.130;5.598;2023-05-02T05:44:34;12.95;;;3.95;;
23716;SDS011;22094;52.130;5.598;2023-05-02T05:47:00;14.63;;;4.00;;
23716;SDS011;22094;52.130;5.598;2023-05-02T05:49:25;15.68;;;3.95;;
23716;SDS011;22094;52.130;5.598;2023-05-02T05:51:51;15.88;;;3.97;;
23716;SDS011;22094;52.130;5.598;2023-05-02T05:54:16;18.90;;;3.88;;
23716;SDS011;22094;52.130;5.598;2023-05-02T05:56:42;17.63;;;3.78;;
23716;SDS011;22094;52.130;5.598;2023-05-02T05:59:08;21.00;;;4.68;;
23716;SDS011;22094;52.130;5.598;2023-05-02T06:01:34;15.70;;;4.47;;
23716;SDS011;22094;52.130;5.598;2023-05-02T06:04:00;14.90;;;4.28;;
23716;SDS011;22094;52.130;5.598;2023-05-02T06:06:27;19.42;;;3.75;;
23716;SDS011;22094;52.130;5.598;2023-05-02T06:08:53;15.50;;;3.58;;
23716;SDS011;22094;52.130;5.598;2023-05-02T06:11:18;13.00;;;3.50;;
23716;SDS011;22094;52.130;5.598;2023-05-02T06:13:44;14.27;;;3.75;;
23716;SDS011;22094;52.130;5.598;2023-05-02T06:16:09;13.20;;;3.10;;
23716;SDS011;22094;52.130;5.598;2023-05-02T06:18:35;13.85;;;3.45;;
23716;SDS011;22094;52.130;5.598;2023-05-02T06:21:04;15.32;;;3.33;;
23716;SDS011;22094;52.130;5.598;2023-05-02T06:23:30;9.63;;;2.53;;
23716;SDS011;22094;52.130;5.598;2023-05-02T06:26:00;12.18;;;2.92;;
23716;SDS011;22094;52.130;5.598;2023-05-02T06:28:26;9.13;;;2.83;;
23716;SDS011;22094;52.130;5.598;2023-05-02T06:31:01;15.50;;;3.00;;
23716;SDS011;22094;52.130;5.598;2023-05-02T06:33:29;12.52;;;2.80;;
23716;SDS011;22094;52.130;5.598;2023-05-02T06:35:55;8.15;;;2.55;;
23716;SDS011;22094;52.130;5.598;2023-05-02T06:38:21;10.75;;;2.95;;
23716;SDS011;22094;52.130;5.598;2023-05-02T06:40:47;13.48;;;2.72;;
23716;SDS011;22094;52.130;5.598;2023-05-02T06:43:13;7.93;;;2.67;;
23716;SDS011;22094;52.130;5.598;2023-05-02T06:45:39;9.07;;;2.95;;
23716;SDS011;22094;52.130;5.598;2023-05-02T06:48:05;10.13;;;2.60;;
23716;SDS011;22094;52.130;5.598;2023-05-02T06:50:31;9.90;;;2.60;;
23716;SDS011;22094;52.130;5.598;2023-05-02T06:52:57;10.45;;;2.92;;
23716;SDS011;22094;52.130;5.598;2023-05-02T06:55:23;11.90;;;3.25;;
23716;SDS011;22094;52.130;5.598;2023-05-02T06:57:49;12.55;;;2.80;;
23716;SDS011;22094;52.130;5.598;2023-05-02T07:00:16;14.02;;;3.45;;
23716;SDS011;22094;52.130;5.598;2023-05-02T07:02:43;11.10;;;2.80;;
23716;SDS011;22094;52.130;5.598;2023-05-02T07:05:12;10.98;;;3.13;;
23716;SDS011;22094;52.130;5.598;2023-05-02T07:07:39;10.48;;;3.58;;
23716;SDS011;22094;52.130;5.598;2023-05-02T07:10:06;8.65;;;3.25;;
23716;SDS011;22094;52.130;5.598;2023-05-02T07:12:32;11.73;;;3.10;;
23716;SDS011;22094;52.130;5.598;2023-05-02T07:14:58;15.65;;;3.25;;
23716;SDS011;22094;52.130;5.598;2023-05-02T07:17:24;16.83;;;3.40;;
23716;SDS011;22094;52.130;5.598;2023-05-02T07:19:50;13.85;;;3.22;;
23716;SDS011;22094;52.130;5.598;2023-05-02T07:22:16;10.65;;;3.17;;
23716;SDS011;22094;52.130;5.598;2023-05-02T07:24:42;11.88;;;2.75;;
23716;SDS011;22094;52.130;5.598;2023-05-02T07:27:08;9.60;;;2.67;;
23716;SDS011;22094;52.130;5.598;2023-05-02T07:29:34;10.15;;;2.42;;
23716;SDS011;22094;52.130;5.598;2023-05-02T07:32:00;13.80;;;2.83;;
23716;SDS011;22094;52.130;5.598;2023-05-02T07:34:26;9.68;;;2.65;;
23716;SDS011;22094;52.130;5.598;2023-05-02T07:36:51;7.05;;;2.65;;
23716;SDS011;22094;52.130;5.598;2023-05-02T07:39:18;7.68;;;2.53;;
23716;SDS011;22094;52.130;5.598;2023-05-02T07:41:43;9.40;;;2.50;;
23716;SDS011;22094;52.130;5.598;2023-05-02T07:44:10;10.02;;;2.50;;
23716;SDS011;22094;52.130;5.598;2023-05-02T07:46:36;6.00;;;2.30;;
23716;SDS011;22094;52.130;5.598;2023-05-02T07:49:01;5.53;;;2.40;;
23716;SDS011;22094;52.130;5.598;2023-05-02T07:51:27;6.38;;;2.60;;
23716;SDS011;22094;52.130;5.598;2023-05-02T07:53:53;7.22;;;2.20;;
23716;SDS011;22094;52.130;5.598;2023-05-02T07:56:23;7.75;;;2.53;;
23716;SDS011;22094;52.130;5.598;2023-05-02T07:58:48;7.10;;;2.35;;
23716;SDS011;22094;52.130;5.598;2023-05-02T08:01:15;7.90;;;2.50;;
23716;SDS011;22094;52.130;5.598;2023-05-02T08:03:41;6.50;;;2.30;;
23716;SDS011;22094;52.130;5.598;2023-05-02T08:06:07;9.65;;;2.30;;
23716;SDS011;22094;52.130;5.598;2023-05-02T08:08:34;9.68;;;2.20;;
23716;SDS011;22094;52.130;5.598;2023-05-02T08:10:59;4.63;;;1.95;;
23716;SDS011;22094;52.130;5.598;2023-05-02T08:13:26;6.43;;;2.15;;
23716;SDS011;22094;52.130;5.598;2023-05-02T08:15:52;6.22;;;2.65;;
23716;SDS011;22094;52.130;5.598;2023-05-02T08:18:22;6.28;;;2.20;;
23716;SDS011;22094;52.130;5.598;2023-05-02T08:20:48;9.55;;;1.92;;
23716;SDS011;22094;52.130;5.598;2023-05-02T08:23:15;2.33;;;1.50;;
23716;SDS011;22094;52.130;5.598;2023-05-02T08:25:40;6.95;;;2.05;;
23716;SDS011;22094;52.130;5.598;2023-05-02T08:28:06;12.23;;;2.50;;
23716;SDS011;22094;52.130;5.598;2023-05-02T08:30:31;9.98;;;2.00;;
23716;SDS011;22094;52.130;5.598;2023-05-02T08:32:57;12.82;;;2.47;;
23716;SDS011;22094;52.130;5.598;2023-05-02T08:35:23;22.02;;;3.33;;
23716;SDS011;22094;52.130;5.598;2023-05-02T08:37:49;5.45;;;1.80;;
23716;SDS011;22094;52.130;5.598;2023-05-02T08:40:15;8.25;;;2.05;;
23716;SDS011;22094;52.130;5.598;2023-05-02T08:42:42;5.05;;;2.22;;
23716;SDS011;22094;52.130;5.598;2023-05-02T08:45:09;5.00;;;1.98;;
23716;SDS011;22094;52.130;5.598;2023-05-02T08:47:37;6.80;;;1.88;;
23716;SDS011;22094;52.130;5.598;2023-05-02T08:50:04;15.63;;;2.85;;
23716;SDS011;22094;52.130;5.598;2023-05-02T08:52:31;9.13;;;2.42;;
23716;SDS011;22094;52.130;5.598;2023-05-02T08:54:58;5.47;;;2.20;;
23716;SDS011;22094;52.130;5.598;2023-05-02T08:57:27;3.70;;;1.40;;
23716;SDS011;22094;52.130;5.598;2023-05-02T08:59:54;5.43;;;1.50;;
23716;SDS011;22094;52.130;5.598;2023-05-02T09:05:09;4.63;;;1.65;;
23716;SDS011;22094;52.130;5.598;2023-05-02T09:07:43;9.43;;;1.77;;
23716;SDS011;22094;52.130;5.598;2023-05-02T09:10:10;6.25;;;1.80;;
23716;SDS011;22094;52.130;5.598;2023-05-02T09:12:36;5.97;;;1.67;;
23716;SDS011;22094;52.130;5.598;2023-05-02T09:15:12;4.93;;;1.70;;
23716;SDS011;22094;52.130;5.598;2023-05-02T09:17:43;4.32;;;1.40;;
23716;SDS011;22094;52.130;5.598;2023-05-02T09:20:11;11.43;;;2.50;;
23716;SDS011;22094;52.130;5.598;2023-05-02T09:22:37;11.13;;;1.98;;
23716;SDS011;22094;52.130;5.598;2023-05-02T09:25:07;18.60;;;3.25;;
23716;SDS011;22094;52.130;5.598;2023-05-02T09:27:51;4.43;;;1.95;;
23716;SDS011;22094;52.130;5.598;2023-05-02T09:30:27;5.32;;;1.70;;
23716;SDS011;22094;52.130;5.598;2023-05-02T09:32:53;5.20;;;2.08;;
23716;SDS011;22094;52.130;5.598;2023-05-02T09:35:19;9.02;;;2.47;;
23716;SDS011;22094;52.130;5.598;2023-05-02T09:37:52;5.13;;;2.20;;
23716;SDS011;22094;52.130;5.598;2023-05-02T09:40:18;7.80;;;1.63;;
23716;SDS011;22094;52.130;5.598;2023-05-02T09:42:44;8.02;;;2.03;;
23716;SDS011;22094;52.130;5.598;2023-05-02T09:45:23;7.93;;;1.90;;
23716;SDS011;22094;52.130;5.598;2023-05-02T09:47:50;7.43;;;1.98;;
23716;SDS011;22094;52.130;5.598;2023-05-02T09:50:36;3.95;;;1.58;;
23716;SDS011;22094;52.130;5.598;2023-05-02T09:53:06;6.57;;;2.00;;
23716;SDS011;22094;52.130;5.598;2023-05-02T09:55:34;6.80;;;1.98;;
23716;SDS011;22094;52.130;5.598;2023-05-02T09:57:59;7.57;;;1.80;;
23716;SDS011;22094;52.130;5.598;2023-05-02T10:00:38;3.63;;;1.67;;
23716;SDS011;22094;52.130;5.598;2023-05-02T10:03:07;6.70;;;2.00;;
23716;SDS011;22094;52.130;5.598;2023-05-02T10:05:37;9.90;;;1.95;;
23716;SDS011;22094;52.130;5.598;2023-05-02T10:08:04;13.18;;;2.15;;
23716;SDS011;22094;52.130;5.598;2023-05-02T10:10:32;4.57;;;1.85;;
23716;SDS011;22094;52.130;5.598;2023-05-02T10:13:00;5.15;;;2.38;;
23716;SDS011;22094;52.130;5.598;2023-05-02T10:15:28;17.55;;;2.60;;
23716;SDS011;22094;52.130;5.598;2023-05-02T10:17:55;20.13;;;2.90;;
23716;SDS011;22094;52.130;5.598;2023-05-02T10:20:24;6.97;;;2.28;;
23716;SDS011;22094;52.130;5.598;2023-05-02T10:22:52;6.45;;;2.20;;
23716;SDS011;22094;52.130;5.598;2023-05-02T10:25:19;5.72;;;2.00;;
23716;SDS011;22094;52.130;5.598;2023-05-02T10:27:45;3.63;;;1.90;;
23716;SDS011;22094;52.130;5.598;2023-05-02T10:30:11;10.00;;;2.53;;
23716;SDS011;22094;52.130;5.598;2023-05-02T10:32:38;4.65;;;2.13;;
23716;SDS011;22094;52.130;5.598;2023-05-02T10:35:04;5.03;;;2.03;;
23716;SDS011;22094;52.130;5.598;2023-05-02T10:37:32;7.43;;;2.30;;
23716;SDS011;22094;52.130;5.598;2023-05-02T10:39:59;8.20;;;2.13;;
23716;SDS011;22094;52.130;5.598;2023-05-02T10:42:25;6.93;;;2.10;;
23716;SDS011;22094;52.130;5.598;2023-05-02T10:44:51;4.72;;;2.30;;
23716;SDS011;22094;52.130;5.598;2023-05-02T10:47:26;4.57;;;2.00;;
23716;SDS011;22094;52.130;5.598;2023-05-02T10:49:53;6.70;;;2.00;;
23716;SDS011;22094;52.130;5.598;2023-05-02T10:55:14;7.25;;;2.20;;
23716;SDS011;22094;52.130;5.598;2023-05-02T11:00:25;4.57;;;2.17;;
23716;SDS011;22094;52.130;5.598;2023-05-02T11:02:58;4.70;;;2.13;;
23716;SDS011;22094;52.130;5.598;2023-05-02T11:05:24;11.88;;;2.45;;
23716;SDS011;22094;52.130;5.598;2023-05-02T11:10:52;10.43;;;2.60;;
23716;SDS011;22094;52.130;5.598;2023-05-02T11:13:46;14.00;;;3.15;;
23716;SDS011;22094;52.130;5.598;2023-05-02T11:16:04;22.35;;;2.80;;
23716;SDS011;22094;52.130;5.598;2023-05-02T11:18:56;4.53;;;2.10;;
23716;SDS011;22094;52.130;5.598;2023-05-02T11:21:28;4.82;;;2.10;;
23716;SDS011;22094;52.130;5.598;2023-05-02T11:30:05;10.45;;;2.88;;
23716;SDS011;22094;52.130;5.598;2023-05-02T11:35:20;14.52;;;2.85;;
23716;SDS011;22094;52.130;5.598;2023-05-02T11:37:53;19.58;;;3.38;;
23716;SDS011;22094;52.130;5.598;2023-05-02T11:40:27;11.63;;;3.13;;
23716;SDS011;22094;52.130;5.598;2023-05-02T11:42:54;8.60;;;2.60;;
23716;SDS011;22094;52.130;5.598;2023-05-02T11:45:20;12.48;;;2.80;;
23716;SDS011;22094;52.130;5.598;2023-05-02T11:47:47;12.43;;;2.72;;
23716;SDS011;22094;52.130;5.598;2023-05-02T11:50:14;7.35;;;2.60;;
23716;SDS011;22094;52.130;5.598;2023-05-02T11:52:42;6.53;;;2.92;;
23716;SDS011;22094;52.130;5.598;2023-05-02T11:55:12;7.25;;;3.10;;
23716;SDS011;22094;52.130;5.598;2023-05-02T11:57:39;8.57;;;2.60;;
23716;SDS011;22094;52.130;5.598;2023-05-02T12:00:05;37.47;;;4.40;;
23716;SDS011;22094;52.130;5.598;2023-05-02T12:02:44;9.05;;;2.95;;
23716;SDS011;22094;52.130;5.598;2023-05-02T12:05:12;6.90;;;2.90;;
23716;SDS011;22094;52.130;5.598;2023-05-02T12:07:39;9.95;;;3.25;;
23716;SDS011;22094;52.130;5.598;2023-05-02T12:10:06;8.70;;;3.03;;
23716;SDS011;22094;52.130;5.598;2023-05-02T12:12:32;8.55;;;2.60;;
23716;SDS011;22094;52.130;5.598;2023-05-02T12:15:02;5.20;;;2.42;;
23716;SDS011;22094;52.130;5.598;2023-05-02T12:17:28;8.60;;;2.80;;
23716;SDS011;22094;52.130;5.598;2023-05-02T12:19:55;6.38;;;3.00;;
23716;SDS011;22094;52.130;5.598;2023-05-02T12:22:22;9.13;;;2.80;;
23716;SDS011;22094;52.130;5.598;2023-05-02T12:24:48;10.18;;;2.90;;
23716;SDS011;22094;52.130;5.598;2023-05-02T12:27:15;10.98;;;3.08;;
23716;SDS011;22094;52.130;5.598;2023-05-02T12:29:42;9.65;;;3.08;;
23716;SDS011;22094;52.130;5.598;2023-05-02T12:32:09;11.10;;;3.13;;
23716;SDS011;22094;52.130;5.598;2023-05-02T12:34:35;7.72;;;2.90;;
23716;SDS011;22094;52.130;5.598;2023-05-02T12:37:02;12.32;;;3.45;;
23716;SDS011;22094;52.130;5.598;2023-05-02T12:42:10;9.65;;;3.45;;
23716;SDS011;22094;52.130;5.598;2023-05-02T12:44:37;6.75;;;3.17;;
23716;SDS011;22094;52.130;5.598;2023-05-02T12:47:03;7.60;;;3.10;;
23716;SDS011;22094;52.130;5.598;2023-05-02T12:49:29;14.20;;;2.90;;
23716;SDS011;22094;52.130;5.598;2023-05-02T12:51:55;5.57;;;2.40;;
23716;SDS011;22094;52.130;5.598;2023-05-02T12:54:22;9.00;;;2.88;;
23716;SDS011;22094;52.130;5.598;2023-05-02T12:56:50;7.43;;;2.60;;
23716;SDS011;22094;52.130;5.598;2023-05-02T12:59:29;8.80;;;3.00;;
23716;SDS011;22094;52.130;5.598;2023-05-02T13:01:56;7.28;;;2.67;;
23716;SDS011;22094;52.130;5.598;2023-05-02T13:04:32;5.75;;;2.72;;
23716;SDS011;22094;52.130;5.598;2023-05-02T13:07:03;31.13;;;3.63;;
23716;SDS011;22094;52.130;5.598;2023-05-02T13:09:29;6.68;;;2.97;;
23716;SDS011;22094;52.130;5.598;2023-05-02T13:11:54;5.25;;;2.53;;
23716;SDS011;22094;52.130;5.598;2023-05-02T13:14:22;10.18;;;2.67;;
23716;SDS011;22094;52.130;5.598;2023-05-02T13:16:48;7.65;;;2.60;;
23716;SDS011;22094;52.130;5.598;2023-05-02T13:19:17;6.43;;;2.83;;
23716;SDS011;22094;52.130;5.598;2023-05-02T13:21:43;8.30;;;3.20;;
23716;SDS011;22094;52.130;5.598;2023-05-02T13:24:09;7.47;;;2.47;;
23716;SDS011;22094;52.130;5.598;2023-05-02T13:26:35;7.80;;;2.70;;
23716;SDS011;22094;52.130;5.598;2023-05-02T13:29:01;4.85;;;2.33;;
23716;SDS011;22094;52.130;5.598;2023-05-02T13:31:27;6.45;;;2.28;;
23716;SDS011;22094;52.130;5.598;2023-05-02T13:33:53;7.97;;;2.90;;
23716;SDS011;22094;52.130;5.598;2023-05-02T13:36:19;5.28;;;2.50;;
23716;SDS011;22094;52.130;5.598;2023-05-02T13:38:45;9.88;;;2.90;;
23716;SDS011;22094;52.130;5.598;2023-05-02T13:41:11;8.55;;;3.00;;
23716;SDS011;22094;52.130;5.598;2023-05-02T13:43:37;7.70;;;2.60;;
23716;SDS011;22094;52.130;5.598;2023-05-02T13:46:04;10.10;;;2.45;;
23716;SDS011;22094;52.130;5.598;2023-05-02T13:48:30;6.43;;;2.85;;
23716;SDS011;22094;52.130;5.598;2023-05-02T13:50:56;19.67;;;3.35;;
23716;SDS011;22094;52.130;5.598;2023-05-02T13:53:22;8.25;;;2.42;;
23716;SDS011;22094;52.130;5.598;2023-05-02T13:55:48;6.88;;;2.50;;
23716;SDS011;22094;52.130;5.598;2023-05-02T13:58:14;6.90;;;2.60;;
23716;SDS011;22094;52.130;5.598;2023-05-02T14:00:40;6.72;;;2.42;;
23716;SDS011;22094;52.130;5.598;2023-05-02T14:03:06;9.60;;;2.92;;
23716;SDS011;22094;52.130;5.598;2023-05-02T14:05:34;9.38;;;2.78;;
23716;SDS011;22094;52.130;5.598;2023-05-02T14:08:00;7.25;;;2.60;;
23716;SDS011;22094;52.130;5.598;2023-05-02T14:10:26;6.43;;;2.60;;
23716;SDS011;22094;52.130;5.598;2023-05-02T14:12:52;10.18;;;2.58;;
23716;SDS011;22094;52.130;5.598;2023-05-02T14:15:18;10.20;;;2.40;;
23716;SDS011;22094;52.130;5.598;2023-05-02T14:17:44;7.45;;;2.72;;
23716;SDS011;22094;52.130;5.598;2023-05-02T14:20:10;9.82;;;2.42;;
23716;SDS011;22094;52.130;5.598;2023-05-02T14:22:36;20.48;;;3.30;;
23716;SDS011;22094;52.130;5.598;2023-05-02T14:25:02;12.65;;;2.50;;
23716;SDS011;22094;52.130;5.598;2023-05-02T14:27:28;5.20;;;2.00;;
23716;SDS011;22094;52.130;5.598;2023-05-02T14:29:54;8.45;;;2.78;;
23716;SDS011;22094;52.130;5.598;2023-05-02T14:32:20;3.63;;;2.13;;
23716;SDS011;22094;52.130;5.598;2023-05-02T14:34:46;8.23;;;2.33;;
23716;SDS011;22094;52.130;5.598;2023-05-02T14:37:12;5.50;;;2.10;;
23716;SDS011;22094;52.130;5.598;2023-05-02T14:39:38;6.47;;;2.30;;
23716;SDS011;22094;52.130;5.598;2023-05-02T14:42:06;8.60;;;2.28;;
23716;SDS011;22094;52.130;5.598;2023-05-02T14:44:32;10.32;;;2.30;;
23716;SDS011;22094;52.130;5.598;2023-05-02T14:46:58;7.45;;;2.50;;
23716;SDS011;22094;52.130;5.598;2023-05-02T14:49:24;10.40;;;2.10;;
23716;SDS011;22094;52.130;5.598;2023-05-02T14:51:50;6.28;;;2.50;;
23716;SDS011;22094;52.130;5.598;2023-05-02T14:54:16;7.60;;;2.15;;
23716;SDS011;22094;52.130;5.598;2023-05-02T14:56:42;5.68;;;2.08;;
23716;SDS011;22094;52.130;5.598;2023-05-02T14:59:08;10.88;;;2.15;;
23716;SDS011;22094;52.130;5.598;2023-05-02T15:01:33;3.72;;;1.70;;
23716;SDS011;22094;52.130;5.598;2023-05-02T15:04:01;4.95;;;2.10;;
23716;SDS011;22094;52.130;5.598;2023-05-02T15:06:30;5.22;;;2.03;;
23716;SDS011;22094;52.130;5.598;2023-05-02T15:08:55;2.92;;;1.70;;
23716;SDS011;22094;52.130;5.598;2023-05-02T15:11:21;4.68;;;2.35;;
23716;SDS011;22094;52.130;5.598;2023-05-02T15:13:47;6.45;;;2.05;;
23716;SDS011;22094;52.130;5.598;2023-05-02T15:16:12;4.38;;;2.15;;
23716;SDS011;22094;52.130;5.598;2023-05-02T15:18:38;4.47;;;1.88;;
23716;SDS011;22094;52.130;5.598;2023-05-02T15:21:03;5.00;;;2.50;;
23716;SDS011;22094;52.130;5.598;2023-05-02T15:23:29;6.50;;;2.20;;
23716;SDS011;22094;52.130;5.598;2023-05-02T15:25:55;6.10;;;2.05;;
23716;SDS011;22094;52.130;5.598;2023-05-02T15:28:21;4.15;;;1.95;;